createdAt,value
2017-11-29T00:00:21.632Z,20.22
2017-11-29T00:00:49.787Z,20.21
2017-11-29T00:01:17.796Z,20.21
2017-11-29T00:01:45.945Z,20.19
2017-11-29T00:02:14.266Z,20.19
2017-11-29T00:02:42.495Z,20.24
2017-11-29T00:03:10.651Z,20.17
2017-11-29T00:03:38.931Z,20.19
2017-11-29T00:04:07.060Z,20.14
2017-11-29T00:04:35.254Z,20.17
2017-11-29T00:05:03.212Z,20.17
2017-11-29T00:05:31.429Z,20.12
2017-11-29T00:05:59.405Z,20.15
2017-11-29T00:06:27.327Z,20.21
2017-11-29T00:06:55.868Z,20.15
2017-11-29T00:07:24.062Z,20.32
2017-11-29T00:07:52.294Z,20.17
2017-11-29T00:08:20.360Z,20.14
2017-11-29T00:08:48.580Z,20.21
2017-11-29T00:09:16.641Z,20.19
2017-11-29T00:09:44.555Z,20.17
2017-11-29T00:10:13.000Z,20.24
2017-11-29T00:10:41.220Z,20.21
2017-11-29T00:11:09.316Z,20.18
2017-11-29T00:11:37.657Z,20.17
2017-11-29T00:12:05.613Z,20.18
2017-11-29T00:12:33.725Z,20.26
2017-11-29T00:13:01.816Z,20.21
2017-11-29T00:13:30.047Z,20.26
2017-11-29T00:13:58.125Z,20.15
2017-11-29T00:14:26.162Z,20.15
2017-11-29T00:14:54.214Z,20.19
2017-11-29T00:15:22.236Z,20.21
2017-11-29T00:15:50.683Z,20.22
2017-11-29T00:16:18.767Z,20.26
2017-11-29T00:16:46.978Z,20.18
2017-11-29T00:17:14.938Z,20.19
2017-11-29T00:17:43.215Z,20.29
2017-11-29T00:18:11.421Z,20.17
2017-11-29T00:18:39.625Z,20.21
2017-11-29T00:19:07.838Z,20.21
2017-11-29T00:19:35.801Z,20.26
2017-11-29T00:20:03.840Z,20.26
2017-11-29T00:20:32.052Z,20.22
2017-11-29T00:21:00.366Z,20.22
2017-11-29T00:21:28.778Z,20.22
2017-11-29T00:21:57.647Z,20.19
2017-11-29T00:22:25.807Z,20.19
2017-11-29T00:22:53.977Z,20.29
2017-11-29T00:23:22.167Z,20.33
2017-11-29T00:23:50.253Z,20.32
2017-11-29T00:24:18.382Z,20.33
2017-11-29T00:24:46.575Z,20.33
2017-11-29T00:25:14.684Z,20.33
2017-11-29T00:25:43.298Z,20.18
2017-11-29T00:26:11.490Z,20.22
2017-11-29T00:26:39.697Z,20.22
2017-11-29T00:27:07.645Z,20.15
2017-11-29T00:27:35.675Z,20.21
2017-11-29T00:28:03.737Z,20.19
2017-11-29T00:28:31.784Z,20.19
2017-11-29T00:28:59.900Z,20.3
2017-11-29T00:29:27.882Z,20.17
2017-11-29T00:29:55.982Z,20.15
2017-11-29T00:30:24.141Z,20.1
2017-11-29T00:30:52.494Z,20.12
2017-11-29T00:31:20.835Z,20.12
2017-11-29T00:31:48.867Z,20.14
2017-11-29T00:32:17.065Z,20.14
2017-11-29T00:32:45.223Z,20.12
2017-11-29T00:33:13.482Z,20.11
2017-11-29T00:33:41.634Z,20.11
2017-11-29T00:34:09.787Z,20.1
2017-11-29T00:34:37.853Z,20.08
2017-11-29T00:35:06.304Z,20.1
2017-11-29T00:35:34.386Z,20.07
2017-11-29T00:36:02.550Z,20.08
2017-11-29T00:36:30.733Z,20.08
2017-11-29T00:36:58.708Z,20.11
2017-11-29T00:37:26.757Z,20.04
2017-11-29T00:37:54.691Z,20
2017-11-29T00:38:22.903Z,20.11
2017-11-29T00:38:50.948Z,20
2017-11-29T00:39:19.162Z,19.97
2017-11-29T00:39:47.377Z,19.96
2017-11-29T00:40:15.542Z,20
2017-11-29T00:40:43.710Z,20
2017-11-29T00:41:11.891Z,19.93
2017-11-29T00:41:40.069Z,19.97
2017-11-29T00:42:08.779Z,19.94
2017-11-29T00:42:36.900Z,19.9
2017-11-29T00:43:05.060Z,19.96
2017-11-29T00:43:33.124Z,19.94
2017-11-29T00:44:01.270Z,19.97
2017-11-29T00:44:29.310Z,20
2017-11-29T00:44:57.427Z,20.03
2017-11-29T00:45:25.470Z,19.94
2017-11-29T00:45:53.691Z,20.1
2017-11-29T00:46:21.896Z,20.03
2017-11-29T00:46:50.042Z,20.07
2017-11-29T00:47:18.238Z,20.03
2017-11-29T00:47:46.335Z,19.99
2017-11-29T00:48:14.311Z,20.04
2017-11-29T00:48:42.368Z,20.1
2017-11-29T00:49:10.449Z,20.03
2017-11-29T00:49:38.540Z,20.07
2017-11-29T00:50:06.590Z,20.07
2017-11-29T00:50:34.661Z,20.04
2017-11-29T00:51:02.629Z,20.03
2017-11-29T00:51:30.593Z,20.04
2017-11-29T00:51:58.733Z,19.94
2017-11-29T00:52:27.004Z,20.07
2017-11-29T00:52:55.196Z,19.92
2017-11-29T00:53:23.086Z,20.08
2017-11-29T00:53:51.233Z,19.94
2017-11-29T00:54:19.394Z,20.03
2017-11-29T00:54:47.450Z,20.03
2017-11-29T00:55:15.621Z,20.07
2017-11-29T00:55:43.925Z,20.04
2017-11-29T00:56:11.884Z,20.07
2017-11-29T00:56:40.023Z,20.03
2017-11-29T00:57:08.098Z,20.08
2017-11-29T00:57:36.271Z,20.07
2017-11-29T00:58:04.447Z,20.08
2017-11-29T00:58:32.614Z,20.08
2017-11-29T00:59:00.806Z,20.1
2017-11-29T00:59:29.124Z,20.1
2017-11-29T00:59:57.207Z,20.14
2017-11-29T01:00:25.279Z,20.11
2017-11-29T01:00:53.472Z,20.12
2017-11-29T01:01:21.726Z,20.11
2017-11-29T01:01:50.156Z,20.07
2017-11-29T01:02:18.318Z,20.08
2017-11-29T01:02:46.414Z,20.17
2017-11-29T01:03:14.506Z,20.15
2017-11-29T01:03:42.548Z,20.17
2017-11-29T01:04:10.597Z,20.15
2017-11-29T01:04:38.914Z,20.14
2017-11-29T01:05:07.075Z,20.14
2017-11-29T01:05:35.219Z,20.07
2017-11-29T01:06:03.208Z,20.1
2017-11-29T01:06:31.251Z,20.04
2017-11-29T01:06:59.179Z,20
2017-11-29T01:07:27.122Z,20.03
2017-11-29T01:07:55.258Z,20.07
2017-11-29T01:08:23.304Z,19.96
2017-11-29T01:08:51.303Z,19.99
2017-11-29T01:09:19.351Z,19.89
2017-11-29T01:09:47.580Z,19.96
2017-11-29T01:10:15.726Z,19.84
2017-11-29T01:10:43.789Z,19.85
2017-11-29T01:11:11.887Z,19.81
2017-11-29T01:11:40.114Z,19.82
2017-11-29T01:12:08.103Z,19.79
2017-11-29T01:12:36.264Z,19.82
2017-11-29T01:13:04.297Z,19.85
2017-11-29T01:13:32.348Z,19.84
2017-11-29T01:14:00.523Z,19.84
2017-11-29T01:14:28.482Z,19.82
2017-11-29T01:14:56.708Z,19.79
2017-11-29T01:15:24.876Z,19.77
2017-11-29T01:15:53.181Z,19.71
2017-11-29T01:16:21.425Z,19.66
2017-11-29T01:16:49.608Z,19.7
2017-11-29T01:17:17.768Z,19.75
2017-11-29T01:17:46.134Z,19.74
2017-11-29T01:18:14.294Z,19.79
2017-11-29T01:18:42.442Z,19.72
2017-11-29T01:19:10.475Z,19.78
2017-11-29T01:19:38.677Z,19.7
2017-11-29T01:20:06.942Z,19.72
2017-11-29T01:20:34.837Z,19.82
2017-11-29T01:21:03.012Z,19.74
2017-11-29T01:21:31.173Z,19.67
2017-11-29T01:21:59.245Z,19.71
2017-11-29T01:22:27.239Z,19.72
2017-11-29T01:22:55.395Z,19.7
2017-11-29T01:23:23.565Z,19.79
2017-11-29T01:23:51.723Z,19.82
2017-11-29T01:24:19.785Z,19.72
2017-11-29T01:24:48.026Z,19.78
2017-11-29T01:25:16.052Z,19.62
2017-11-29T01:25:44.191Z,19.75
2017-11-29T01:26:12.453Z,19.78
2017-11-29T01:26:40.889Z,19.81
2017-11-29T01:27:09.122Z,19.75
2017-11-29T01:27:37.407Z,19.74
2017-11-29T01:28:05.537Z,19.75
2017-11-29T01:28:34.033Z,19.74
2017-11-29T01:29:02.194Z,19.72
2017-11-29T01:29:30.466Z,19.64
2017-11-29T01:29:58.524Z,19.75
2017-11-29T01:30:26.661Z,19.75
2017-11-29T01:30:54.726Z,19.66
2017-11-29T01:31:22.897Z,19.71
2017-11-29T01:31:51.027Z,19.78
2017-11-29T01:32:19.301Z,19.77
2017-11-29T01:32:47.353Z,19.7
2017-11-29T01:33:15.501Z,19.82
2017-11-29T01:33:43.836Z,19.81
2017-11-29T01:34:12.233Z,19.85
2017-11-29T01:34:40.299Z,19.82
2017-11-29T01:35:08.544Z,19.92
2017-11-29T01:35:36.627Z,19.82
2017-11-29T01:36:04.742Z,19.84
2017-11-29T01:36:32.917Z,19.9
2017-11-29T01:37:00.876Z,19.82
2017-11-29T01:37:29.075Z,19.93
2017-11-29T01:37:57.229Z,19.82
2017-11-29T01:38:25.395Z,19.82
2017-11-29T01:38:53.587Z,19.87
2017-11-29T01:39:21.897Z,19.81
2017-11-29T01:39:49.958Z,19.82
2017-11-29T01:40:18.126Z,19.81
2017-11-29T01:40:46.302Z,19.66
2017-11-29T01:41:14.583Z,19.67
2017-11-29T01:41:43.385Z,19.67
2017-11-29T01:42:11.414Z,19.77
2017-11-29T01:42:39.709Z,19.78
2017-11-29T01:43:07.855Z,19.7
2017-11-29T01:43:35.999Z,19.75
2017-11-29T01:44:04.245Z,19.74
2017-11-29T01:44:32.406Z,19.78
2017-11-29T01:45:00.878Z,19.71
2017-11-29T01:45:29.460Z,19.78
2017-11-29T01:45:57.672Z,19.66
2017-11-29T01:46:25.840Z,19.71
2017-11-29T01:46:54.013Z,19.62
2017-11-29T01:47:22.164Z,19.7
2017-11-29T01:47:50.332Z,19.66
2017-11-29T01:48:18.433Z,19.64
2017-11-29T01:48:46.442Z,19.67
2017-11-29T01:49:14.487Z,19.7
2017-11-29T01:49:42.798Z,19.62
2017-11-29T01:50:10.834Z,19.78
2017-11-29T01:50:39.013Z,19.71
2017-11-29T01:51:07.120Z,19.75
2017-11-29T01:51:36.090Z,19.74
2017-11-29T01:52:04.545Z,19.72
2017-11-29T01:52:33.256Z,19.79
2017-11-29T01:53:01.266Z,19.78
2017-11-29T01:53:29.447Z,19.74
2017-11-29T01:53:57.600Z,19.66
2017-11-29T01:54:26.344Z,19.82
2017-11-29T01:54:54.602Z,19.81
2017-11-29T01:55:23.207Z,19.84
2017-11-29T01:55:51.489Z,19.78
2017-11-29T01:56:20.020Z,19.79
2017-11-29T01:56:48.227Z,19.79
2017-11-29T01:57:16.645Z,19.64
2017-11-29T01:57:45.153Z,19.77
2017-11-29T01:58:13.029Z,19.77
2017-11-29T01:58:40.953Z,19.63
2017-11-29T01:59:09.221Z,19.66
2017-11-29T01:59:37.490Z,19.79
2017-11-29T02:00:05.695Z,19.72
2017-11-29T02:00:33.694Z,19.71
2017-11-29T02:01:01.843Z,19.78
2017-11-29T02:01:30.261Z,19.79
2017-11-29T02:01:58.501Z,19.64
2017-11-29T02:02:26.605Z,19.84
2017-11-29T02:02:54.753Z,19.82
2017-11-29T02:03:22.824Z,19.82
2017-11-29T02:03:51.133Z,19.82
2017-11-29T02:04:19.288Z,19.79
2017-11-29T02:04:47.530Z,19.79
2017-11-29T02:05:15.956Z,19.74
2017-11-29T02:05:44.118Z,19.71
2017-11-29T02:06:12.430Z,19.75
2017-11-29T02:06:40.826Z,19.72
2017-11-29T02:07:08.747Z,19.64
2017-11-29T02:07:36.940Z,19.78
2017-11-29T02:08:05.045Z,19.6
2017-11-29T02:08:33.186Z,19.66
2017-11-29T02:09:01.334Z,19.63
2017-11-29T02:09:29.403Z,19.64
2017-11-29T02:09:57.580Z,19.6
2017-11-29T02:10:25.636Z,19.7
2017-11-29T02:10:53.769Z,19.75
2017-11-29T02:11:21.955Z,19.81
2017-11-29T02:11:50.080Z,19.78
2017-11-29T02:12:18.252Z,19.7
2017-11-29T02:12:46.404Z,19.66
2017-11-29T02:13:14.563Z,19.71
2017-11-29T02:13:42.851Z,19.64
2017-11-29T02:14:10.902Z,19.64
2017-11-29T02:14:39.073Z,19.67
2017-11-29T02:15:07.112Z,19.64
2017-11-29T02:15:35.232Z,19.64
2017-11-29T02:16:03.393Z,19.71
2017-11-29T02:16:31.458Z,19.7
2017-11-29T02:16:59.584Z,19.64
2017-11-29T02:17:27.846Z,19.66
2017-11-29T02:17:55.979Z,19.64
2017-11-29T02:18:23.956Z,19.66
2017-11-29T02:18:52.099Z,19.66
2017-11-29T02:19:20.285Z,19.63
2017-11-29T02:19:48.443Z,19.62
2017-11-29T02:20:16.601Z,19.77
2017-11-29T02:20:44.832Z,19.75
2017-11-29T02:21:12.990Z,19.75
2017-11-29T02:21:41.140Z,19.79
2017-11-29T02:22:09.243Z,19.78
2017-11-29T02:22:37.449Z,19.7
2017-11-29T02:23:05.618Z,19.72
2017-11-29T02:23:33.685Z,19.72
2017-11-29T02:24:01.810Z,19.7
2017-11-29T02:24:29.736Z,19.64
2017-11-29T02:24:57.909Z,19.59
2017-11-29T02:25:26.032Z,19.52
2017-11-29T02:25:54.145Z,19.55
2017-11-29T02:26:22.424Z,19.49
2017-11-29T02:26:50.724Z,19.47
2017-11-29T02:27:18.908Z,19.48
2017-11-29T02:27:46.950Z,19.42
2017-11-29T02:28:15.139Z,19.41
2017-11-29T02:28:43.301Z,19.37
2017-11-29T02:29:11.421Z,19.37
2017-11-29T02:29:39.590Z,19.37
2017-11-29T02:30:07.546Z,19.32
2017-11-29T02:30:35.655Z,19.38
2017-11-29T02:31:03.811Z,19.34
2017-11-29T02:31:31.963Z,19.34
2017-11-29T02:32:00.171Z,19.42
2017-11-29T02:32:28.338Z,19.39
2017-11-29T02:32:56.474Z,19.35
2017-11-29T02:33:24.678Z,19.41
2017-11-29T02:33:52.817Z,19.39
2017-11-29T02:34:20.944Z,19.45
2017-11-29T02:34:49.578Z,19.44
2017-11-29T02:35:17.992Z,19.44
2017-11-29T02:35:46.063Z,19.39
2017-11-29T02:36:14.243Z,19.39
2017-11-29T02:36:42.482Z,19.35
2017-11-29T02:37:10.320Z,19.42
2017-11-29T02:37:38.515Z,19.47
2017-11-29T02:38:06.675Z,19.41
2017-11-29T02:38:34.816Z,19.42
2017-11-29T02:39:03.060Z,19.45
2017-11-29T02:39:31.200Z,19.44
2017-11-29T02:39:59.683Z,19.39
2017-11-29T02:40:27.760Z,19.35
2017-11-29T02:40:55.923Z,19.44
2017-11-29T02:41:24.044Z,19.41
2017-11-29T02:41:52.570Z,19.42
2017-11-29T02:42:20.636Z,19.41
2017-11-29T02:42:48.898Z,19.41
2017-11-29T02:43:17.258Z,19.39
2017-11-29T02:43:45.115Z,19.41
2017-11-29T02:44:13.149Z,19.44
2017-11-29T02:44:41.123Z,19.35
2017-11-29T02:45:09.311Z,19.41
2017-11-29T02:45:37.515Z,19.45
2017-11-29T02:46:05.582Z,19.44
2017-11-29T02:46:33.721Z,19.45
2017-11-29T02:47:01.558Z,19.47
2017-11-29T02:47:29.893Z,19.44
2017-11-29T02:47:58.181Z,19.42
2017-11-29T02:48:26.305Z,19.48
2017-11-29T02:48:54.436Z,19.42
2017-11-29T02:49:22.686Z,19.32
2017-11-29T02:49:51.375Z,19.35
2017-11-29T02:50:19.227Z,19.37
2017-11-29T02:50:47.657Z,19.35
2017-11-29T02:51:16.087Z,19.3
2017-11-29T02:51:44.273Z,19.32
2017-11-29T02:52:12.363Z,19.39
2017-11-29T02:52:40.717Z,19.29
2017-11-29T02:53:08.894Z,19.37
2017-11-29T02:53:37.188Z,19.26
2017-11-29T02:54:05.316Z,19.26
2017-11-29T02:54:33.559Z,19.34
2017-11-29T02:55:01.585Z,19.27
2017-11-29T02:55:29.735Z,19.29
2017-11-29T02:55:57.707Z,19.3
2017-11-29T02:56:25.974Z,19.27
2017-11-29T02:56:54.062Z,19.27
2017-11-29T02:57:22.249Z,19.27
2017-11-29T02:57:50.391Z,19.34
2017-11-29T02:58:18.322Z,19.27
2017-11-29T02:58:46.485Z,19.26
2017-11-29T02:59:14.521Z,19.2
2017-11-29T02:59:42.792Z,19.26
2017-11-29T03:00:10.975Z,19.12
2017-11-29T03:00:38.920Z,19.17
2017-11-29T03:01:07.090Z,19.24
2017-11-29T03:01:35.260Z,19.17
2017-11-29T03:02:03.321Z,19.19
2017-11-29T03:02:31.386Z,19.11
2017-11-29T03:02:59.545Z,19.05
2017-11-29T03:03:27.710Z,19.09
2017-11-29T03:03:55.925Z,19.01
2017-11-29T03:04:24.088Z,19.05
2017-11-29T03:04:52.152Z,19.04
2017-11-29T03:05:20.310Z,19.04
2017-11-29T03:05:48.494Z,18.97
2017-11-29T03:06:16.748Z,18.98
2017-11-29T03:06:45.023Z,18.97
2017-11-29T03:07:13.177Z,18.89
2017-11-29T03:07:41.511Z,18.92
2017-11-29T03:08:09.963Z,19
2017-11-29T03:08:38.023Z,18.94
2017-11-29T03:09:06.223Z,18.97
2017-11-29T03:09:34.672Z,18.97
2017-11-29T03:10:02.845Z,19.01
2017-11-29T03:10:30.819Z,19.01
2017-11-29T03:10:58.808Z,19.05
2017-11-29T03:11:27.021Z,19.01
2017-11-29T03:11:55.954Z,19.01
2017-11-29T03:12:24.015Z,19
2017-11-29T03:12:52.651Z,18.97
2017-11-29T03:13:20.776Z,19.05
2017-11-29T03:13:48.983Z,18.97
2017-11-29T03:14:17.037Z,19.05
2017-11-29T03:14:45.218Z,19.16
2017-11-29T03:15:13.502Z,19.09
2017-11-29T03:15:41.649Z,19.11
2017-11-29T03:16:09.705Z,19.08
2017-11-29T03:16:37.963Z,19.05
2017-11-29T03:17:06.030Z,19.07
2017-11-29T03:17:33.996Z,19.09
2017-11-29T03:18:02.398Z,19.17
2017-11-29T03:18:30.633Z,19.09
2017-11-29T03:18:58.888Z,19.2
2017-11-29T03:19:27.274Z,19.05
2017-11-29T03:19:55.305Z,19.07
2017-11-29T03:20:23.444Z,19.11
2017-11-29T03:20:51.620Z,19.16
2017-11-29T03:21:19.749Z,19.08
2017-11-29T03:21:47.906Z,19.17
2017-11-29T03:22:16.378Z,19.09
2017-11-29T03:22:44.562Z,19.11
2017-11-29T03:23:12.718Z,19.08
2017-11-29T03:23:40.871Z,19.09
2017-11-29T03:24:09.128Z,19.15
2017-11-29T03:24:37.279Z,19.19
2017-11-29T03:25:05.393Z,19.15
2017-11-29T03:25:33.563Z,19.16
2017-11-29T03:26:01.680Z,19.2
2017-11-29T03:26:29.815Z,19.19
2017-11-29T03:26:58.311Z,19.2
2017-11-29T03:27:26.520Z,19.22
2017-11-29T03:27:54.688Z,19.2
2017-11-29T03:28:22.884Z,19.17
2017-11-29T03:28:50.974Z,19.26
2017-11-29T03:29:19.201Z,19.26
2017-11-29T03:29:47.700Z,19.2
2017-11-29T03:30:16.109Z,19.24
2017-11-29T03:30:44.156Z,19.22
2017-11-29T03:31:12.213Z,19.2
2017-11-29T03:31:40.336Z,19.23
2017-11-29T03:32:08.546Z,19.17
2017-11-29T03:32:36.712Z,19.26
2017-11-29T03:33:04.751Z,19.2
2017-11-29T03:33:32.955Z,19.19
2017-11-29T03:34:00.794Z,19.2
2017-11-29T03:34:28.963Z,19.29
2017-11-29T03:34:57.267Z,19.26
2017-11-29T03:35:25.390Z,19.2
2017-11-29T03:35:53.533Z,19.17
2017-11-29T03:36:21.474Z,19.19
2017-11-29T03:36:49.613Z,19.2
2017-11-29T03:37:17.798Z,19.17
2017-11-29T03:37:46.049Z,19.22
2017-11-29T03:38:14.181Z,19.16
2017-11-29T03:38:42.384Z,19.19
2017-11-29T03:39:10.562Z,19.23
2017-11-29T03:39:38.719Z,19.19
2017-11-29T03:40:07.636Z,19.11
2017-11-29T03:40:35.849Z,19.07
2017-11-29T03:41:03.813Z,19.09
2017-11-29T03:41:31.904Z,19.15
2017-11-29T03:42:00.052Z,19.08
2017-11-29T03:42:28.173Z,19.11
2017-11-29T03:42:56.420Z,19.09
2017-11-29T03:43:24.475Z,19.12
2017-11-29T03:43:52.682Z,19.16
2017-11-29T03:44:20.775Z,19.15
2017-11-29T03:44:49.482Z,19.19
2017-11-29T03:45:17.592Z,19.2
2017-11-29T03:45:45.722Z,19.19
2017-11-29T03:46:13.925Z,19.19
2017-11-29T03:46:42.029Z,19.23
2017-11-29T03:47:10.060Z,19.15
2017-11-29T03:47:38.269Z,19.29
2017-11-29T03:48:06.391Z,19.2
2017-11-29T03:48:34.731Z,19.2
2017-11-29T03:49:02.840Z,19.26
2017-11-29T03:49:30.903Z,19.27
2017-11-29T03:49:59.051Z,19.29
2017-11-29T03:50:27.294Z,19.32
2017-11-29T03:50:55.433Z,19.29
2017-11-29T03:51:23.612Z,19.24
2017-11-29T03:51:51.780Z,19.2
2017-11-29T03:52:21.321Z,19.35
2017-11-29T03:52:49.400Z,19.32
2017-11-29T03:53:17.629Z,19.34
2017-11-29T03:53:45.785Z,19.22
2017-11-29T03:54:13.921Z,19.32
2017-11-29T03:54:42.031Z,19.22
2017-11-29T03:55:10.259Z,19.26
2017-11-29T03:55:38.312Z,19.24
2017-11-29T03:56:06.510Z,19.22
2017-11-29T03:56:34.753Z,19.27
2017-11-29T03:57:02.944Z,19.23
2017-11-29T03:57:31.043Z,19.22
2017-11-29T03:57:59.268Z,19.3
2017-11-29T03:58:27.999Z,19.26
2017-11-29T03:58:55.954Z,19.19
2017-11-29T03:59:24.098Z,19.24
2017-11-29T03:59:52.169Z,19.23
2017-11-29T04:00:20.246Z,19.32
2017-11-29T04:00:48.447Z,19.32
2017-11-29T04:01:16.719Z,19.23
2017-11-29T04:01:44.816Z,19.17
2017-11-29T04:02:13.109Z,19.15
2017-11-29T04:02:41.244Z,19.19
2017-11-29T04:03:09.492Z,19.2
2017-11-29T04:03:37.570Z,19.29
2017-11-29T04:04:05.709Z,19.19
2017-11-29T04:04:33.740Z,19.23
2017-11-29T04:05:01.894Z,19.2
2017-11-29T04:05:29.960Z,19.15
2017-11-29T04:05:57.936Z,19.16
2017-11-29T04:06:26.125Z,19.17
2017-11-29T04:06:54.267Z,19.15
2017-11-29T04:07:22.208Z,19.19
2017-11-29T04:07:50.396Z,19.12
2017-11-29T04:08:18.509Z,19.19
2017-11-29T04:08:46.746Z,19.2
2017-11-29T04:09:14.873Z,19.15
2017-11-29T04:09:43.038Z,19.17
2017-11-29T04:10:11.189Z,19.08
2017-11-29T04:10:39.401Z,19.09
2017-11-29T04:11:07.569Z,19.07
2017-11-29T04:11:35.707Z,19.11
2017-11-29T04:12:03.804Z,19.09
2017-11-29T04:12:31.895Z,19.11
2017-11-29T04:13:00.022Z,19.07
2017-11-29T04:13:28.167Z,19.2
2017-11-29T04:13:56.504Z,19.2
2017-11-29T04:14:24.644Z,19.23
2017-11-29T04:14:52.733Z,19.17
2017-11-29T04:15:20.773Z,19.2
2017-11-29T04:15:48.918Z,19.19
2017-11-29T04:16:16.844Z,19.22
2017-11-29T04:16:45.110Z,19.2
2017-11-29T04:17:13.366Z,19.26
2017-11-29T04:17:41.428Z,19.22
2017-11-29T04:18:09.675Z,19.19
2017-11-29T04:18:37.852Z,19.22
2017-11-29T04:19:06.266Z,19.23
2017-11-29T04:19:34.489Z,19.17
2017-11-29T04:20:02.539Z,19.16
2017-11-29T04:20:30.466Z,19.23
2017-11-29T04:20:58.528Z,19.22
2017-11-29T04:21:26.596Z,19.16
2017-11-29T04:21:54.696Z,19.22
2017-11-29T04:22:22.739Z,19.16
2017-11-29T04:22:50.899Z,19.23
2017-11-29T04:23:19.037Z,19.26
2017-11-29T04:23:47.420Z,19.27
2017-11-29T04:24:15.480Z,19.22
2017-11-29T04:24:43.431Z,19.17
2017-11-29T04:25:11.645Z,19.19
2017-11-29T04:25:39.699Z,19.24
2017-11-29T04:26:07.871Z,19.24
2017-11-29T04:26:36.020Z,19.22
2017-11-29T04:27:04.171Z,19.22
2017-11-29T04:27:32.328Z,19.26
2017-11-29T04:28:00.515Z,19.15
2017-11-29T04:28:29.089Z,19.2
2017-11-29T04:28:57.314Z,19.29
2017-11-29T04:29:25.450Z,19.16
2017-11-29T04:29:53.624Z,19.26
2017-11-29T04:30:21.722Z,19.16
2017-11-29T04:30:49.794Z,19.22
2017-11-29T04:31:17.893Z,19.16
2017-11-29T04:31:45.812Z,19.2
2017-11-29T04:32:14.022Z,19.09
2017-11-29T04:32:42.071Z,19.12
2017-11-29T04:33:10.136Z,19.07
2017-11-29T04:33:38.287Z,19.09
2017-11-29T04:34:06.515Z,19.08
2017-11-29T04:34:34.734Z,19.11
2017-11-29T04:35:02.864Z,19.08
2017-11-29T04:35:30.919Z,19.08
2017-11-29T04:35:58.912Z,19.08
2017-11-29T04:36:26.863Z,19.16
2017-11-29T04:36:54.934Z,19.08
2017-11-29T04:37:23.112Z,19.19
2017-11-29T04:37:51.173Z,19.17
2017-11-29T04:38:19.366Z,19.07
2017-11-29T04:38:47.507Z,19.11
2017-11-29T04:39:15.680Z,19.07
2017-11-29T04:39:43.852Z,19.07
2017-11-29T04:40:12.130Z,19.11
2017-11-29T04:40:40.313Z,19.08
2017-11-29T04:41:08.458Z,19.07
2017-11-29T04:41:36.607Z,19.08
2017-11-29T04:42:04.786Z,19.08
2017-11-29T04:42:32.941Z,19.09
2017-11-29T04:43:00.940Z,19.19
2017-11-29T04:43:29.017Z,19.11
2017-11-29T04:43:57.059Z,19.12
2017-11-29T04:44:25.281Z,19.12
2017-11-29T04:44:53.346Z,19.08
2017-11-29T04:45:21.376Z,19.08
2017-11-29T04:45:49.625Z,19.16
2017-11-29T04:46:17.817Z,19.11
2017-11-29T04:46:45.953Z,19.09
2017-11-29T04:47:13.965Z,19.05
2017-11-29T04:47:42.191Z,19.19
2017-11-29T04:48:10.242Z,19.2
2017-11-29T04:48:38.512Z,19.22
2017-11-29T04:49:06.981Z,19.19
2017-11-29T04:49:34.963Z,19.2
2017-11-29T04:50:03.169Z,19.2
2017-11-29T04:50:31.232Z,19.2
2017-11-29T04:50:59.320Z,19.17
2017-11-29T04:51:27.523Z,19.08
2017-11-29T04:51:55.500Z,19.17
2017-11-29T04:52:23.565Z,19.22
2017-11-29T04:52:51.429Z,19.07
2017-11-29T04:53:19.456Z,19.08
2017-11-29T04:53:47.648Z,19.09
2017-11-29T04:54:15.493Z,19.09
2017-11-29T04:54:43.792Z,19.11
2017-11-29T04:55:12.013Z,18.96
2017-11-29T04:55:40.184Z,19.09
2017-11-29T04:56:08.358Z,19.07
2017-11-29T04:56:36.449Z,19.12
2017-11-29T04:57:04.947Z,19.01
2017-11-29T04:57:33.802Z,19.09
2017-11-29T04:58:02.190Z,19.01
2017-11-29T04:58:30.230Z,19.08
2017-11-29T04:58:58.251Z,19.15
2017-11-29T04:59:26.437Z,19.09
2017-11-29T04:59:54.507Z,19.04
2017-11-29T05:00:22.689Z,19.09
2017-11-29T05:00:50.735Z,19.08
2017-11-29T05:01:19.320Z,19.08
2017-11-29T05:01:47.367Z,19.09
2017-11-29T05:02:15.530Z,19.11
2017-11-29T05:02:43.770Z,19.08
2017-11-29T05:03:11.978Z,19.09
2017-11-29T05:03:40.034Z,19.09
2017-11-29T05:04:08.232Z,19.12
2017-11-29T05:04:36.629Z,19.08
2017-11-29T05:05:05.125Z,19.22
2017-11-29T05:05:33.339Z,19.08
2017-11-29T05:06:01.498Z,19.22
2017-11-29T05:06:29.431Z,19.2
2017-11-29T05:06:57.533Z,19.09
2017-11-29T05:07:25.909Z,19.08
2017-11-29T05:07:53.995Z,19.15
2017-11-29T05:08:22.189Z,19.12
2017-11-29T05:08:50.177Z,19.09
2017-11-29T05:09:18.334Z,19.08
2017-11-29T05:09:46.517Z,19.08
2017-11-29T05:10:14.583Z,19.01
2017-11-29T05:10:42.839Z,19.08
2017-11-29T05:11:11.157Z,19.04
2017-11-29T05:11:39.301Z,19.01
2017-11-29T05:12:07.373Z,19
2017-11-29T05:12:35.428Z,19.07
2017-11-29T05:13:03.565Z,18.98
2017-11-29T05:13:31.677Z,18.97
2017-11-29T05:13:59.899Z,19.01
2017-11-29T05:14:28.070Z,19
2017-11-29T05:14:56.257Z,19
2017-11-29T05:15:24.448Z,19.04
2017-11-29T05:15:52.592Z,19.07
2017-11-29T05:16:20.661Z,19.04
2017-11-29T05:16:48.703Z,19.07
2017-11-29T05:17:16.961Z,19.04
2017-11-29T05:17:45.114Z,19.11
2017-11-29T05:18:13.619Z,19.07
2017-11-29T05:18:41.697Z,19.07
2017-11-29T05:19:09.776Z,19.01
2017-11-29T05:19:38.161Z,19.08
2017-11-29T05:20:06.416Z,19.07
2017-11-29T05:20:34.512Z,19
2017-11-29T05:21:02.727Z,19.04
2017-11-29T05:21:30.889Z,19.07
2017-11-29T05:21:59.082Z,19.12
2017-11-29T05:22:27.159Z,19.04
2017-11-29T05:22:55.310Z,19.01
2017-11-29T05:23:23.690Z,19.04
2017-11-29T05:23:51.702Z,19.05
2017-11-29T05:24:19.820Z,19.11
2017-11-29T05:24:47.976Z,19.05
2017-11-29T05:25:15.933Z,19.08
2017-11-29T05:25:44.168Z,19.08
2017-11-29T05:26:12.325Z,19.09
2017-11-29T05:26:40.454Z,19.05
2017-11-29T05:27:08.567Z,19.05
2017-11-29T05:27:36.786Z,19.08
2017-11-29T05:28:05.003Z,19.05
2017-11-29T05:28:33.066Z,18.96
2017-11-29T05:29:01.217Z,19
2017-11-29T05:29:29.304Z,19.05
2017-11-29T05:29:57.442Z,19.09
2017-11-29T05:30:25.498Z,18.98
2017-11-29T05:30:53.678Z,18.96
2017-11-29T05:31:21.731Z,19.05
2017-11-29T05:31:49.796Z,19.05
2017-11-29T05:32:17.962Z,19
2017-11-29T05:32:46.059Z,19.04
2017-11-29T05:33:14.101Z,18.96
2017-11-29T05:33:42.326Z,19
2017-11-29T05:34:10.572Z,18.91
2017-11-29T05:34:38.696Z,18.98
2017-11-29T05:35:06.990Z,18.92
2017-11-29T05:35:35.126Z,18.89
2017-11-29T05:36:03.454Z,19.04
2017-11-29T05:36:31.466Z,18.91
2017-11-29T05:36:59.552Z,18.96
2017-11-29T05:37:27.695Z,18.88
2017-11-29T05:37:55.820Z,18.88
2017-11-29T05:38:23.885Z,18.91
2017-11-29T05:38:52.069Z,18.91
2017-11-29T05:39:20.125Z,18.88
2017-11-29T05:39:48.176Z,18.86
2017-11-29T05:40:16.247Z,18.92
2017-11-29T05:40:44.350Z,18.86
2017-11-29T05:41:12.491Z,18.89
2017-11-29T05:41:40.594Z,18.88
2017-11-29T05:42:08.749Z,18.86
2017-11-29T05:42:36.816Z,18.88
2017-11-29T05:43:05.004Z,18.83
2017-11-29T05:43:33.163Z,18.91
2017-11-29T05:44:01.298Z,18.85
2017-11-29T05:44:29.661Z,18.86
2017-11-29T05:44:57.883Z,18.88
2017-11-29T05:45:26.058Z,18.85
2017-11-29T05:45:54.276Z,18.82
2017-11-29T05:46:22.346Z,18.85
2017-11-29T05:46:50.431Z,18.91
2017-11-29T05:47:18.472Z,18.88
2017-11-29T05:47:46.635Z,18.85
2017-11-29T05:48:15.129Z,18.82
2017-11-29T05:48:43.193Z,18.88
2017-11-29T05:49:11.229Z,18.85
2017-11-29T05:49:39.473Z,18.86
2017-11-29T05:50:07.762Z,18.85
2017-11-29T05:50:35.913Z,18.86
2017-11-29T05:51:03.971Z,18.89
2017-11-29T05:51:32.212Z,18.78
2017-11-29T05:52:00.163Z,18.83
2017-11-29T05:52:28.331Z,18.85
2017-11-29T05:52:56.385Z,18.89
2017-11-29T05:53:24.558Z,18.89
2017-11-29T05:53:52.740Z,18.81
2017-11-29T05:54:20.933Z,18.86
2017-11-29T05:54:49.207Z,18.89
2017-11-29T05:55:17.372Z,18.89
2017-11-29T05:55:45.418Z,18.89
2017-11-29T05:56:13.473Z,18.91
2017-11-29T05:56:41.633Z,18.85
2017-11-29T05:57:09.693Z,18.78
2017-11-29T05:57:37.946Z,18.83
2017-11-29T05:58:06.136Z,18.73
2017-11-29T05:58:34.277Z,18.74
2017-11-29T05:59:02.521Z,18.7
2017-11-29T05:59:30.693Z,18.71
2017-11-29T05:59:58.925Z,18.67
2017-11-29T06:00:26.970Z,18.71
2017-11-29T06:00:55.107Z,18.66
2017-11-29T06:01:23.153Z,18.63
2017-11-29T06:01:51.230Z,18.57
2017-11-29T06:02:19.420Z,18.57
2017-11-29T06:02:47.571Z,18.57
2017-11-29T06:03:15.729Z,18.53
2017-11-29T06:03:43.877Z,18.52
2017-11-29T06:04:12.175Z,18.46
2017-11-29T06:04:40.233Z,18.61